Time;durP1;ratioP1;P1;durP2;ratioP2;P2;SDS_P1;SDS_P2;PMS_P1;PMS_P2;Temp;Humidity;BMP_temperature;BMP_pressure;BME280_temperature;BME280_humidity;BME280_pressure;Samples;Min_cycle;Max_cycle;Signal;HPM_P1;HPM_P2
2020/12/10 07:40:15;;;;;;;4.05;2.78;;;16.10;47.60;;;;;;5180687;23;20512;-42
2020/12/10 07:42:43;;;;;;;3.17;2.73;;;16.20;48.00;;;;;;5054111;28;20051;-42
2020/12/10 07:45:17;;;;;;;5.78;2.42;;;16.20;47.90;;;;;;5054848;28;20037;-41
2020/12/10 07:47:53;;;;;;;3.83;2.72;;;16.20;48.00;;;;;;5054766;28;20324;-42
2020/12/10 07:50:22;;;;;;;4.65;3.42;;;16.20;48.10;;;;;;5054632;28;20439;-42
2020/12/10 07:52:52;;;;;;;5.53;4.20;;;16.20;48.10;;;;;;5054645;28;20087;-42
2020/12/10 07:55:24;;;;;;;4.30;3.63;;;16.20;48.20;;;;;;5054351;28;20086;-42
2020/12/10 07:57:56;;;;;;;7.75;3.30;;;16.20;48.50;;;;;;5054786;28;20045;-53
2020/12/10 08:00:26;;;;;;;3.70;3.13;;;16.20;48.50;;;;;;5054562;28;20044;-49
2020/12/10 08:03:05;;;;;;;8.65;4.85;;;16.20;48.40;;;;;;5054594;28;20033;-42
2020/12/10 08:05:32;;;;;;;4.78;3.53;;;16.20;46.90;;;;;;5054591;28;20358;-41
2020/12/10 08:07:58;;;;;;;5.05;3.38;;;16.10;47.30;;;;;;5054464;28;20044;-41
2020/12/10 08:10:24;;;;;;;8.00;3.30;;;16.10;47.80;;;;;;5054837;28;20029;-42
2020/12/10 08:13:16;;;;;;;3.97;3.08;;;16.10;48.00;;;;;;5054395;28;20033;-40
2020/12/10 08:15:44;;;;;;;4.18;2.85;;;16.20;48.10;;;;;;5054348;28;20029;-43
2020/12/10 08:18:12;;;;;;;3.67;2.80;;;16.20;48.20;;;;;;5054173;28;20076;-42
2020/12/10 08:20:49;;;;;;;4.93;2.80;;;16.20;48.80;;;;;;5054744;28;20032;-42
2020/12/10 08:23:16;;;;;;;3.55;2.70;;;16.20;48.20;;;;;;5055183;28;20036;-40
2020/12/10 08:25:43;;;;;;;4.13;2.75;;;16.30;48.10;;;;;;5058633;28;20043;-40
2020/12/10 08:28:10;;;;;;;3.05;2.65;;;16.30;48.10;;;;;;5057823;28;20036;-42
2020/12/10 08:30:48;;;;;;;2.83;2.05;;;16.30;48.00;;;;;;5057787;28;20033;-42
2020/12/10 08:33:13;;;;;;;5.18;2.35;;;16.30;48.10;;;;;;5057915;28;20104;-41
2020/12/10 08:35:41;;;;;;;2.80;2.10;;;16.30;47.90;;;;;;5058214;28;20434;-41
2020/12/10 08:38:06;;;;;;;2.70;2.38;;;16.30;47.90;;;;;;5057566;28;20048;-41
2020/12/10 08:40:32;;;;;;;2.35;2.13;;;16.40;47.90;;;;;;5057997;28;20045;-40
2020/12/10 08:43:08;;;;;;;4.60;2.47;;;16.40;47.90;;;;;;5057929;28;20039;-42
2020/12/10 08:45:37;;;;;;;3.10;2.35;;;16.40;47.80;;;;;;5057561;28;20132;-42
2020/12/10 08:48:03;;;;;;;3.33;2.65;;;16.40;47.80;;;;;;5058030;28;20033;-42
2020/12/10 08:50:29;;;;;;;3.20;2.22;;;16.40;47.80;;;;;;5057992;28;20029;-41
2020/12/10 08:52:58;;;;;;;4.10;2.90;;;16.40;47.70;;;;;;5057513;28;20025;-40
2020/12/10 08:55:24;;;;;;;3.08;2.78;;;16.40;47.60;;;;;;5057997;28;20033;-40
2020/12/10 08:57:49;;;;;;;3.55;2.67;;;16.40;47.60;;;;;;5057785;28;20037;-43
2020/12/10 09:00:15;;;;;;;2.55;2.35;;;16.40;47.60;;;;;;5057402;28;20355;-43
2020/12/10 09:02:41;;;;;;;3.22;2.53;;;16.50;47.70;;;;;;5057090;28;20380;-40
2020/12/10 09:05:06;;;;;;;3.78;2.47;;;16.40;47.70;;;;;;5057510;28;20029;-41
2020/12/10 09:07:32;;;;;;;2.33;2.13;;;16.40;47.70;;;;;;5057454;28;20402;-41
2020/12/10 09:09:59;;;;;;;3.50;2.28;;;16.40;47.70;;;;;;5057247;28;20033;-42
2020/12/10 09:12:24;;;;;;;2.47;2.15;;;16.40;47.70;;;;;;5057035;28;20427;-41
2020/12/10 09:14:50;;;;;;;2.40;2.20;;;16.50;47.70;;;;;;5057598;28;20056;-41
2020/12/10 09:17:15;;;;;;;2.78;2.30;;;16.40;47.60;;;;;;5056926;28;20048;-42
2020/12/10 09:19:41;;;;;;;5.38;2.47;;;16.40;47.60;;;;;;5057008;28;20060;-41
2020/12/10 09:22:09;;;;;;;3.25;2.40;;;16.40;47.60;;;;;;5057100;28;20052;-40
2020/12/10 09:24:35;;;;;;;3.13;2.58;;;16.40;47.70;;;;;;5056827;28;20120;-41
2020/12/10 09:27:06;;;;;;;3.22;2.65;;;16.40;47.70;;;;;;5056681;28;20069;-41
2020/12/10 09:29:32;;;;;;;2.33;2.13;;;16.40;47.60;;;;;;5056649;28;20489;-40
2020/12/10 09:31:57;;;;;;;3.38;2.92;;;16.40;47.60;;;;;;5056848;28;20108;-44
2020/12/10 09:34:23;;;;;;;3.10;2.80;;;16.40;47.60;;;;;;5056718;28;20324;-41
2020/12/10 09:36:48;;;;;;;2.92;2.50;;;16.40;47.60;;;;;;5056126;28;20059;-42
2020/12/10 09:39:14;;;;;;;4.05;2.50;;;16.40;47.60;;;;;;5057028;28;20342;-40
2020/12/10 09:41:43;;;;;;;3.10;2.47;;;16.40;47.60;;;;;;5056415;28;20045;-41
2020/12/10 09:44:08;;;;;;;2.38;2.10;;;16.40;47.60;;;;;;5056623;28;20037;-41
2020/12/10 09:46:34;;;;;;;3.30;2.45;;;16.40;47.60;;;;;;5056377;28;20033;-41
2020/12/10 09:48:59;;;;;;;2.72;2.28;;;16.40;47.60;;;;;;5056428;28;20036;-41
2020/12/10 09:51:26;;;;;;;3.97;2.30;;;16.40;47.60;;;;;;5056444;28;20040;-44
2020/12/10 09:54:03;;;;;;;2.47;2.15;;;16.40;47.60;;;;;;5056384;28;20022;-42
2020/12/10 09:59:14;;;;;;;2.55;2.35;;;16.30;47.50;;;;;;5056494;28;20039;-41
2020/12/10 10:01:45;;;;;;;2.42;2.22;;;16.40;47.50;;;;;;5056237;28;20092;-41
2020/12/10 10:04:10;;;;;;;3.38;2.25;;;16.40;47.50;;;;;;5056328;28;20036;-42
2020/12/10 10:06:36;;;;;;;4.50;2.30;;;16.40;47.50;;;;;;5056210;28;20048;-42
2020/12/10 10:09:04;;;;;;;2.40;2.15;;;16.40;47.40;;;;;;5056039;28;20044;-43
2020/12/10 10:11:29;;;;;;;2.20;2.00;;;16.40;47.40;;;;;;5056031;28;20423;-41
2020/12/10 10:13:55;;;;;;;2.45;2.10;;;16.40;47.40;;;;;;5056362;28;20056;-41
2020/12/10 10:16:29;;;;;;;2.75;2.47;;;16.40;47.40;;;;;;5055855;28;20055;-40
2020/12/10 10:18:55;;;;;;;2.25;2.08;;;16.40;47.40;;;;;;5056304;28;20044;-43
2020/12/10 10:21:22;;;;;;;2.13;1.92;;;16.40;47.30;;;;;;5055896;28;20029;-40
2020/12/10 10:23:48;;;;;;;1.88;1.77;;;16.40;47.30;;;;;;5055596;28;20033;-41
2020/12/10 10:26:14;;;;;;;2.15;1.95;;;16.50;47.30;;;;;;5055855;28;20049;-42
2020/12/10 10:28:40;;;;;;;2.38;2.17;;;16.50;47.30;;;;;;5055961;28;20029;-43
2020/12/10 10:31:08;;;;;;;2.17;1.98;;;16.50;47.20;;;;;;5055974;28;20040;-41
2020/12/10 10:33:34;;;;;;;2.17;1.98;;;16.50;47.20;;;;;;5055528;28;20040;-41
2020/12/10 10:36:01;;;;;;;2.10;1.90;;;16.60;47.20;;;;;;5055552;28;20044;-42
2020/12/10 10:38:27;;;;;;;2.45;2.20;;;16.50;47.10;;;;;;5056335;28;20333;-41
2020/12/10 10:40:52;;;;;;;2.05;1.92;;;16.50;47.10;;;;;;5051439;28;20049;-41
2020/12/10 10:43:18;;;;;;;2.17;1.90;;;16.60;47.10;;;;;;5055844;28;20440;-42
2020/12/10 10:45:43;;;;;;;2.20;2.00;;;16.60;47.10;;;;;;5054978;28;20035;-43
2020/12/10 10:48:09;;;;;;;2.10;1.88;;;16.60;47.10;;;;;;5054965;28;20041;-40
2020/12/10 10:50:34;;;;;;;1.80;1.70;;;16.60;47.00;;;;;;5055272;28;20055;-42
2020/12/10 10:53:00;;;;;;;2.13;1.80;;;16.60;47.00;;;;;;5055273;28;20025;-41
2020/12/10 10:55:25;;;;;;;2.33;2.13;;;16.60;47.00;;;;;;5055171;28;20451;-41
2020/12/10 10:57:51;;;;;;;2.78;2.30;;;16.60;47.00;;;;;;5055202;28;20120;-42
2020/12/10 11:00:16;;;;;;;1.95;1.85;;;16.60;47.00;;;;;;5055421;28;20083;-41
2020/12/10 11:02:42;;;;;;;1.80;1.70;;;16.60;47.00;;;;;;5055164;28;20064;-41
2020/12/10 11:05:07;;;;;;;2.33;2.13;;;16.60;47.00;;;;;;5055025;28;20474;-41
2020/12/10 11:07:33;;;;;;;2.30;2.10;;;16.60;47.00;;;;;;5055567;28;20120;-41
2020/12/10 11:09:58;;;;;;;1.85;1.67;;;16.60;47.00;;;;;;5055067;28;20061;-42
2020/12/10 11:12:25;;;;;;;2.38;2.17;;;16.70;47.10;;;;;;5055005;28;20477;-41
2020/12/10 11:14:51;;;;;;;3.22;2.50;;;16.60;47.00;;;;;;5054987;28;20036;-40
2020/12/10 11:17:16;;;;;;;2.30;2.10;;;16.70;47.10;;;;;;5054695;28;20037;-40
2020/12/10 11:19:43;;;;;;;2.50;2.20;;;16.60;47.00;;;;;;5054914;28;20507;-41
2020/12/10 11:22:09;;;;;;;2.38;2.17;;;16.60;47.00;;;;;;5054892;28;20123;-42
2020/12/10 11:24:34;;;;;;;2.47;2.28;;;16.60;47.00;;;;;;5055042;28;20127;-42
2020/12/10 11:27:00;;;;;;;2.80;2.47;;;16.60;47.00;;;;;;5054812;28;20037;-44
2020/12/10 11:29:25;;;;;;;2.67;2.20;;;16.60;47.00;;;;;;5054972;28;20503;-40
2020/12/10 11:31:53;;;;;;;2.63;2.42;;;16.60;47.00;;;;;;5055120;28;20033;-40
2020/12/10 11:34:18;;;;;;;2.25;2.05;;;16.60;47.00;;;;;;5054399;28;20447;-41
2020/12/10 11:36:47;;;;;;;2.40;2.20;;;16.60;47.00;;;;;;5054862;28;20045;-40
2020/12/10 11:39:13;;;;;;;2.35;2.15;;;16.50;47.00;;;;;;5054767;28;20452;-42
2020/12/10 11:41:39;;;;;;;2.65;2.45;;;16.50;47.00;;;;;;5054541;28;20382;-41
2020/12/10 11:44:05;;;;;;;2.90;2.60;;;16.60;47.00;;;;;;5054403;28;20115;-41
2020/12/10 11:46:31;;;;;;;3.22;2.72;;;16.50;47.70;;;;;;5054749;28;20079;-40
2020/12/10 11:48:56;;;;;;;2.60;2.40;;;16.60;47.70;;;;;;5054665;28;20427;-41
2020/12/10 11:51:22;;;;;;;2.97;2.50;;;16.50;47.00;;;;;;5054652;28;20095;-42
2020/12/10 11:53:48;;;;;;;2.70;2.42;;;16.50;47.00;;;;;;5054893;28;20037;-41
2020/12/10 11:56:15;;;;;;;2.53;2.33;;;16.50;47.00;;;;;;5054773;28;20073;-41
2020/12/10 11:58:41;;;;;;;2.60;2.33;;;16.50;47.00;;;;;;5055747;28;20033;-43
2020/12/10 12:01:06;;;;;;;2.65;2.45;;;16.50;47.10;;;;;;5058228;28;20052;-40
2020/12/10 12:03:32;;;;;;;2.75;2.50;;;16.50;47.10;;;;;;5058510;28;20037;-40
2020/12/10 12:05:57;;;;;;;3.50;2.90;;;16.50;47.00;;;;;;5058760;28;20451;-41
2020/12/10 12:08:27;;;;;;;3.35;3.00;;;16.50;47.10;;;;;;5058631;28;20072;-42
2020/12/10 12:10:53;;;;;;;3.03;2.63;;;16.50;47.10;;;;;;5058013;28;20485;-40
2020/12/10 12:13:19;;;;;;;3.47;2.83;;;16.40;47.10;;;;;;5059201;28;20063;-41
2020/12/10 12:15:45;;;;;;;3.40;3.10;;;16.50;47.10;;;;;;5058316;28;20461;-42
2020/12/10 12:18:11;;;;;;;5.18;3.40;;;16.50;47.10;;;;;;5058023;28;20098;-42
2020/12/10 12:20:36;;;;;;;2.58;2.20;;;16.40;47.10;;;;;;5058497;28;20033;-43
2020/12/10 12:23:02;;;;;;;3.25;2.55;;;16.40;47.10;;;;;;5058449;28;20122;-44
2020/12/10 12:25:28;;;;;;;3.30;3.00;;;16.40;47.10;;;;;;5058634;28;20045;-41
2020/12/10 12:27:54;;;;;;;3.65;3.10;;;16.40;47.10;;;;;;5058250;28;20462;-42
2020/12/10 12:30:20;;;;;;;3.67;2.50;;;16.40;47.10;;;;;;5058110;28;20029;-42
2020/12/10 12:32:45;;;;;;;2.92;2.50;;;16.40;47.00;;;;;;5057974;28;20033;-41
2020/12/10 12:35:11;;;;;;;2.60;2.40;;;16.40;47.00;;;;;;5057795;28;20083;-43
2020/12/10 12:37:36;;;;;;;2.53;2.33;;;16.40;47.00;;;;;;5057833;28;20044;-42
2020/12/10 12:40:03;;;;;;;2.67;2.38;;;16.40;46.90;;;;;;5057835;28;20040;-41
2020/12/10 12:42:29;;;;;;;2.85;2.47;;;16.40;46.90;;;;;;5057999;28;20055;-43
2020/12/10 12:44:54;;;;;;;2.58;2.28;;;16.40;46.90;;;;;;5057758;28;20037;-41
2020/12/10 12:47:20;;;;;;;3.03;2.50;;;16.40;46.90;;;;;;5057386;28;20041;-41
2020/12/10 12:49:45;;;;;;;2.20;2.00;;;16.40;46.90;;;;;;5057628;28;20111;-41
2020/12/10 12:52:11;;;;;;;2.47;2.03;;;16.40;46.90;;;;;;5057324;28;20058;-42
2020/12/10 12:54:37;;;;;;;2.78;2.58;;;16.50;46.90;;;;;;5057661;28;20033;-42
2020/12/10 12:57:02;;;;;;;2.35;2.00;;;16.50;46.80;;;;;;5057148;28;20041;-42
2020/12/10 12:59:28;;;;;;;2.58;2.38;;;16.50;46.80;;;;;;5057493;28;20090;-42
2020/12/10 13:01:53;;;;;;;2.92;2.50;;;16.50;46.80;;;;;;5057292;28;20338;-41
2020/12/10 13:04:21;;;;;;;3.45;3.00;;;16.50;46.80;;;;;;5057745;28;20041;-40
2020/12/10 13:06:48;;;;;;;3.03;2.72;;;16.50;46.70;;;;;;5057330;28;20044;-41
2020/12/10 13:09:15;;;;;;;3.30;3.00;;;16.50;46.70;;;;;;5057008;28;20031;-43
2020/12/10 13:11:41;;;;;;;3.53;3.08;;;16.50;46.60;;;;;;5056860;28;20029;-41
2020/12/10 13:14:07;;;;;;;2.53;2.33;;;16.50;46.60;;;;;;5057207;28;20047;-41
2020/12/10 13:16:33;;;;;;;3.50;2.80;;;16.50;46.60;;;;;;5056764;28;20124;-41
2020/12/10 13:18:59;;;;;;;3.78;3.03;;;16.50;46.60;;;;;;5057113;28;20033;-41
2020/12/10 13:21:24;;;;;;;4.22;3.30;;;16.50;46.70;;;;;;5057201;28;20032;-42
2020/12/10 13:23:50;;;;;;;3.55;3.08;;;16.50;46.70;;;;;;5057096;28;20029;-41
2020/12/10 13:26:24;;;;;;;4.63;3.65;;;16.50;46.70;;;;;;5057041;28;20033;-42
2020/12/10 13:28:49;;;;;;;5.07;3.55;;;16.50;46.70;;;;;;5057146;28;20036;-42
2020/12/10 13:31:15;;;;;;;3.50;3.20;;;16.50;46.70;;;;;;5056874;28;20029;-41
2020/12/10 13:33:40;;;;;;;3.80;3.40;;;16.50;46.80;;;;;;5057062;28;20090;-41
2020/12/10 13:36:09;;;;;;;4.22;3.03;;;16.50;46.90;;;;;;5056572;28;20052;-43
2020/12/10 13:38:35;;;;;;;3.83;3.42;;;16.50;46.90;;;;;;5056759;28;20037;-42
2020/12/10 13:41:01;;;;;;;3.30;3.00;;;16.40;46.90;;;;;;5056607;28;20120;-41
2020/12/10 13:43:26;;;;;;;3.67;3.33;;;16.40;46.90;;;;;;5056929;28;20037;-40
2020/12/10 13:45:52;;;;;;;4.07;3.33;;;16.40;46.90;;;;;;5056654;28;20043;-44
2020/12/10 13:48:18;;;;;;;3.50;3.08;;;16.40;46.90;;;;;;5056704;28;20111;-41
2020/12/10 13:50:43;;;;;;;4.30;3.67;;;16.40;46.90;;;;;;5056382;28;20060;-40
2020/12/10 13:53:09;;;;;;;3.88;3.45;;;16.40;46.90;;;;;;5056463;28;20048;-40
2020/12/10 13:55:35;;;;;;;3.70;3.03;;;16.40;46.90;;;;;;5056035;28;20091;-42
2020/12/10 13:58:01;;;;;;;3.40;2.90;;;16.40;46.90;;;;;;5056650;28;20083;-42
2020/12/10 14:00:27;;;;;;;3.88;3.45;;;16.40;47.00;;;;;;5057104;28;20044;-40
2020/12/10 14:02:52;;;;;;;4.13;3.50;;;16.40;46.90;;;;;;5056621;28;20037;-42
2020/12/10 14:05:18;;;;;;;3.60;3.17;;;16.40;46.90;;;;;;5056255;28;20037;-42
2020/12/10 14:07:43;;;;;;;3.35;2.97;;;16.40;46.80;;;;;;5056691;28;20047;-42
2020/12/10 14:10:09;;;;;;;4.30;3.35;;;16.40;46.90;;;;;;5055746;28;20037;-41
2020/12/10 14:12:35;;;;;;;3.75;2.95;;;16.40;46.90;;;;;;5055995;28;20029;-41
2020/12/10 14:15:00;;;;;;;3.35;3.05;;;16.40;46.90;;;;;;5056216;28;20040;-41
2020/12/10 14:17:26;;;;;;;4.30;3.20;;;16.40;46.80;;;;;;5056049;28;20052;-42
2020/12/10 14:19:53;;;;;;;3.38;3.08;;;16.40;46.80;;;;;;5056007;28;20033;-39
2020/12/10 14:22:18;;;;;;;3.65;3.35;;;16.40;46.80;;;;;;5055586;28;20108;-40
2020/12/10 14:24:44;;;;;;;3.92;3.03;;;16.40;46.80;;;;;;5055921;28;20392;-40
2020/12/10 14:27:10;;;;;;;3.55;3.20;;;16.50;46.80;;;;;;5055924;28;20029;-41
2020/12/10 14:29:35;;;;;;;3.80;3.17;;;16.50;46.70;;;;;;5056114;28;20069;-41
2020/12/10 14:32:01;;;;;;;4.65;3.50;;;16.50;46.70;;;;;;5055853;28;20047;-43
2020/12/10 14:34:26;;;;;;;5.10;4.13;;;16.60;46.70;;;;;;5055494;28;20037;-40
2020/12/10 14:36:52;;;;;;;6.90;4.85;;;16.50;46.90;;;;;;5055352;28;20045;-40
2020/12/10 14:39:17;;;;;;;9.75;4.10;;;16.60;47.00;;;;;;5055545;28;20040;-40
2020/12/10 14:41:43;;;;;;;10.77;3.83;;;16.50;47.00;;;;;;5037902;28;20041;-40
2020/12/10 14:44:09;;;;;;;10.27;4.15;;;16.60;47.00;;;;;;5055229;28;20057;-41
2020/12/10 14:46:36;;;;;;;7.70;4.07;;;16.50;47.00;;;;;;5055086;28;20044;-41
2020/12/10 14:49:01;;;;;;;5.75;4.35;;;16.60;47.10;;;;;;5054815;28;20037;-41
2020/12/10 14:51:27;;;;;;;7.55;3.80;;;16.60;47.10;;;;;;5054928;28;20048;-40
2020/12/10 14:53:52;;;;;;;6.38;4.30;;;16.60;47.20;;;;;;5055240;28;20364;-43
2020/12/10 14:56:22;;;;;;;5.93;4.10;;;16.60;47.30;;;;;;5055173;28;20116;-40
2020/12/10 14:58:48;;;;;;;9.18;4.10;;;16.70;47.40;;;;;;5055181;28;20308;-42
2020/12/10 15:01:25;;;;;;;9.77;4.20;;;16.70;47.50;;;;;;5054821;28;20087;-41
2020/12/10 15:03:50;;;;;;;5.40;4.20;;;16.70;47.40;;;;;;5054996;28;20359;-41
2020/12/10 15:06:16;;;;;;;8.65;4.22;;;16.70;47.40;;;;;;5054815;28;20037;-41
2020/12/10 15:08:42;;;;;;;7.55;4.10;;;16.80;47.60;;;;;;5054720;28;20102;-40
2020/12/10 15:11:07;;;;;;;7.70;4.45;;;16.80;47.60;;;;;;5038275;28;20386;-41
2020/12/10 15:13:33;;;;;;;13.73;4.75;;;16.80;47.60;;;;;;5054857;28;20033;-43
2020/12/10 15:15:58;;;;;;;17.00;4.80;;;16.90;47.70;;;;;;5054900;28;20037;-40
2020/12/10 15:18:24;;;;;;;10.75;4.10;;;16.90;47.70;;;;;;5054801;28;20486;-41
2020/12/10 15:20:49;;;;;;;5.95;3.55;;;17.00;47.70;;;;;;5054857;28;20025;-42
2020/12/10 15:23:15;;;;;;;15.32;7.75;;;17.00;47.70;;;;;;5054884;28;20048;-42
2020/12/10 15:25:40;;;;;;;17.45;7.03;;;17.10;48.10;;;;;;5054327;28;20035;-41
2020/12/10 15:28:06;;;;;;;10.23;4.85;;;17.10;48.10;;;;;;5055060;28;20422;-42
2020/12/10 15:30:31;;;;;;;10.52;4.95;;;17.10;48.10;;;;;;5055040;28;20037;-41
2020/12/10 15:32:58;;;;;;;6.97;4.43;;;17.20;48.30;;;;;;5054743;28;20044;-41
2020/12/10 15:35:23;;;;;;;6.22;4.32;;;17.30;48.40;;;;;;5054548;28;20025;-42
2020/12/10 15:37:49;;;;;;;9.30;5.10;;;17.30;48.50;;;;;;5054285;28;20120;-42
2020/12/10 15:40:15;;;;;;;7.22;3.83;;;17.40;48.50;;;;;;5054169;28;20029;-42
2020/12/10 15:42:40;;;;;;;4.88;4.00;;;17.50;48.60;;;;;;5052930;28;20052;-41
2020/12/10 15:45:06;;;;;;;5.15;4.03;;;17.50;48.60;;;;;;5054978;28;20076;-40
2020/12/10 15:47:31;;;;;;;5.88;4.13;;;17.60;48.60;;;;;;5054741;28;20044;-43
2020/12/10 15:49:57;;;;;;;9.52;4.72;;;17.60;48.50;;;;;;5055203;28;20359;-41
2020/12/10 15:52:23;;;;;;;5.85;4.40;;;17.70;48.60;;;;;;5054817;28;20174;-41
2020/12/10 15:54:49;;;;;;;6.97;4.75;;;17.70;48.50;;;;;;5054240;28;20040;-40
2020/12/10 15:57:15;;;;;;;6.60;4.57;;;17.70;48.50;;;;;;5054410;28;20443;-40
2020/12/10 15:59:40;;;;;;;6.45;4.68;;;17.70;48.40;;;;;;5054602;28;20037;-42
2020/12/10 16:02:06;;;;;;;7.78;4.47;;;17.70;48.40;;;;;;5054550;28;20087;-41
2020/12/10 16:04:31;;;;;;;6.20;4.53;;;17.80;48.40;;;;;;5054581;28;20033;-44
2020/12/10 16:06:57;;;;;;;9.40;4.78;;;17.80;48.40;;;;;;5054639;28;20048;-42
2020/12/10 16:09:23;;;;;;;6.93;4.68;;;17.80;48.40;;;;;;5054736;28;20090;-42
2020/12/10 16:11:48;;;;;;;6.07;4.72;;;17.90;48.50;;;;;;5054457;28;20033;-42
2020/12/10 16:14:14;;;;;;;7.32;4.68;;;17.90;48.40;;;;;;5070364;28;20432;-41
2020/12/10 16:16:40;;;;;;;6.32;4.57;;;17.90;48.40;;;;;;5053790;28;20045;-41
2020/12/10 16:19:06;;;;;;;12.77;5.53;;;18.00;48.40;;;;;;5054101;28;20116;-41
2020/12/10 16:21:32;;;;;;;9.63;5.55;;;18.00;48.40;;;;;;5053941;28;20032;-41
2020/12/10 16:23:58;;;;;;;11.60;5.35;;;18.00;48.30;;;;;;5053829;28;20041;-42
2020/12/10 16:26:23;;;;;;;7.70;4.63;;;18.10;48.40;;;;;;5054284;28;20029;-42
2020/12/10 16:28:49;;;;;;;8.07;4.70;;;18.00;48.30;;;;;;5053115;28;20037;-41
2020/12/10 16:31:16;;;;;;;10.40;5.82;;;18.10;48.40;;;;;;5054162;28;20113;-43
2020/12/10 16:33:42;;;;;;;10.82;5.95;;;18.10;48.40;;;;;;5054108;28;20108;-42
2020/12/10 16:36:16;;;;;;;9.15;5.00;;;18.10;48.40;;;;;;5054061;28;20040;-42
2020/12/10 16:38:42;;;;;;;7.70;5.38;;;18.10;48.40;;;;;;5053565;28;20367;-41
2020/12/10 16:41:10;;;;;;;7.43;5.20;;;18.10;48.30;;;;;;5054056;28;20124;-42
2020/12/10 16:43:36;;;;;;;7.00;5.00;;;18.10;48.30;;;;;;5052827;28;20053;-43
2020/12/10 16:46:05;;;;;;;9.43;5.80;;;18.20;48.40;;;;;;5056210;28;20068;-41
2020/12/10 16:48:31;;;;;;;17.08;6.57;;;18.20;48.40;;;;;;5057195;28;20040;-41
2020/12/10 16:50:57;;;;;;;9.68;6.10;;;18.20;48.40;;;;;;5057260;28;20044;-42
2020/12/10 16:53:22;;;;;;;9.55;6.05;;;18.20;48.40;;;;;;5057937;28;20107;-42
2020/12/10 16:55:47;;;;;;;10.10;6.47;;;18.20;48.40;;;;;;5057149;28;20175;-43
2020/12/10 16:58:13;;;;;;;7.55;5.57;;;18.30;48.30;;;;;;5057227;28;20470;-43
2020/12/10 17:00:38;;;;;;;7.90;5.60;;;18.30;48.30;;;;;;5056693;28;20104;-41
2020/12/10 17:03:04;;;;;;;6.32;4.90;;;18.30;48.30;;;;;;5057244;28;20354;-40
2020/12/10 17:05:29;;;;;;;9.50;6.05;;;18.30;48.30;;;;;;5057453;28;20478;-42
2020/12/10 17:07:55;;;;;;;7.10;5.15;;;18.30;48.40;;;;;;5056960;28;20037;-41
2020/12/10 17:10:20;;;;;;;9.52;6.55;;;18.30;48.40;;;;;;5057242;28;20033;-42
2020/12/10 17:12:46;;;;;;;10.73;6.53;;;18.40;48.40;;;;;;5057424;28;20043;-41
2020/12/10 17:15:11;;;;;;;8.90;6.38;;;18.40;48.20;;;;;;5056883;28;20025;-41
2020/12/10 17:17:37;;;;;;;10.20;6.05;;;18.50;48.20;;;;;;5057212;28;20044;-41
2020/12/10 17:20:02;;;;;;;7.78;5.78;;;18.50;48.10;;;;;;5056816;28;20443;-41
2020/12/10 17:22:29;;;;;;;9.65;6.65;;;18.60;48.10;;;;;;5057438;28;20029;-41
2020/12/10 17:24:54;;;;;;;8.02;6.15;;;18.70;48.00;;;;;;5056962;28;20033;-43
2020/12/10 17:27:20;;;;;;;11.65;6.30;;;18.70;47.90;;;;;;5056623;28;20048;-41
2020/12/10 17:29:45;;;;;;;8.50;6.30;;;18.80;47.90;;;;;;5056856;28;20087;-41
2020/12/10 17:32:11;;;;;;;9.18;6.72;;;18.80;47.80;;;;;;5056255;28;20033;-41
2020/12/10 17:34:36;;;;;;;9.90;6.78;;;18.90;47.80;;;;;;5056005;28;20071;-42
2020/12/10 17:37:02;;;;;;;9.50;6.72;;;18.90;47.70;;;;;;5056056;28;20099;-41
2020/12/10 17:39:27;;;;;;;9.07;6.40;;;18.90;47.60;;;;;;5056857;28;20037;-41
2020/12/10 17:41:53;;;;;;;9.48;6.70;;;18.90;47.60;;;;;;5056274;28;20045;-42
2020/12/10 17:44:18;;;;;;;10.85;6.88;;;19.00;47.60;;;;;;5056534;28;20037;-42
2020/12/10 17:46:45;;;;;;;9.63;6.90;;;19.10;47.50;;;;;;5056473;28;20029;-44
2020/12/10 17:49:10;;;;;;;10.70;6.57;;;19.10;47.50;;;;;;5056382;28;20033;-41
2020/12/10 17:51:36;;;;;;;12.32;7.45;;;19.10;47.40;;;;;;5056486;28;20037;-42
2020/12/10 17:54:01;;;;;;;9.85;6.85;;;19.10;47.40;;;;;;5056402;28;20104;-42
2020/12/10 17:56:27;;;;;;;11.23;6.88;;;19.20;47.40;;;;;;5055355;28;20162;-42
2020/12/10 17:58:52;;;;;;;9.68;6.88;;;19.20;47.30;;;;;;5056074;28;20080;-42
2020/12/10 18:01:18;;;;;;;10.80;6.38;;;19.20;47.30;;;;;;5055981;28;20036;-42
2020/12/10 18:03:43;;;;;;;9.35;6.78;;;19.30;47.30;;;;;;5056335;28;20033;-42
2020/12/10 18:06:10;;;;;;;8.38;6.10;;;19.30;47.20;;;;;;5056282;28;20033;-43
2020/12/10 18:08:36;;;;;;;9.23;6.60;;;19.30;47.10;;;;;;5056132;28;20033;-40
2020/12/10 18:11:06;;;;;;;11.73;6.45;;;19.40;47.10;;;;;;5056297;28;20078;-42
2020/12/10 18:13:32;;;;;;;8.80;6.38;;;19.40;47.10;;;;;;5055780;28;20028;-41
2020/12/10 18:16:02;;;;;;;9.73;6.43;;;19.40;47.00;;;;;;5055844;28;20037;-42
2020/12/10 18:18:27;;;;;;;8.50;6.32;;;19.50;47.10;;;;;;5055847;28;20052;-41
2020/12/10 18:20:53;;;;;;;9.90;6.55;;;19.50;47.10;;;;;;5055914;28;20029;-42
2020/12/10 18:23:19;;;;;;;8.40;5.50;;;19.50;47.00;;;;;;5055238;28;20033;-42
2020/12/10 18:25:44;;;;;;;8.32;6.20;;;19.50;47.00;;;;;;5055474;28;20386;-42
2020/12/10 18:28:10;;;;;;;10.50;5.95;;;19.50;47.00;;;;;;5055829;28;20037;-40
2020/12/10 18:30:35;;;;;;;7.75;5.88;;;19.50;47.00;;;;;;5055153;28;20033;-42
2020/12/10 18:33:02;;;;;;;8.80;6.43;;;19.50;46.90;;;;;;5055753;28;20036;-41
2020/12/10 18:35:27;;;;;;;12.60;8.32;;;19.50;47.00;;;;;;5055053;28;20029;-42
2020/12/10 18:37:53;;;;;;;11.18;8.38;;;19.50;46.70;;;;;;5055191;28;20037;-43
2020/12/10 18:40:19;;;;;;;10.45;7.70;;;19.50;46.40;;;;;;5055818;28;20044;-42
2020/12/10 18:42:44;;;;;;;10.30;6.70;;;19.50;46.60;;;;;;5054986;28;20041;-42
2020/12/10 18:45:10;;;;;;;9.55;7.30;;;19.50;46.70;;;;;;5055620;28;20032;-42
2020/12/10 18:47:37;;;;;;;9.63;7.25;;;19.50;46.70;;;;;;5055625;28;20071;-43
2020/12/10 18:50:10;;;;;;;6.97;5.65;;;19.50;46.70;;;;;;5054642;28;20471;-44
2020/12/10 18:52:36;;;;;;;9.70;7.15;;;19.50;46.70;;;;;;5055167;28;20074;-44
2020/12/10 18:55:02;;;;;;;10.60;7.07;;;19.50;46.70;;;;;;5055319;28;20104;-42
2020/12/10 18:57:27;;;;;;;9.98;6.78;;;19.50;46.80;;;;;;5054919;28;20356;-42
2020/12/10 18:59:53;;;;;;;10.38;6.90;;;19.50;46.70;;;;;;5055207;28;20133;-42
2020/12/10 19:02:27;;;;;;;8.35;6.07;;;19.50;46.80;;;;;;5054283;28;20029;-41
2020/12/10 19:04:53;;;;;;;10.05;5.35;;;19.50;46.90;;;;;;5055387;28;20032;-42
2020/12/10 19:07:19;;;;;;;9.05;6.15;;;19.50;46.90;;;;;;5054884;28;20040;-43
2020/12/10 19:09:44;;;;;;;7.28;6.07;;;19.50;46.90;;;;;;5054175;28;20037;-43
2020/12/10 19:12:10;;;;;;;8.07;5.72;;;19.50;46.90;;;;;;5054181;28;20362;-41
2020/12/10 19:14:35;;;;;;;7.07;5.65;;;19.50;47.00;;;;;;5054047;28;20407;-43
2020/12/10 19:17:01;;;;;;;8.18;5.68;;;19.60;47.00;;;;;;5054266;28;20045;-43
2020/12/10 19:19:26;;;;;;;9.57;6.03;;;19.60;47.00;;;;;;5054223;28;20067;-43
2020/12/10 19:21:52;;;;;;;7.32;5.63;;;19.60;47.00;;;;;;5054938;28;20432;-43
2020/12/10 19:24:18;;;;;;;6.50;5.18;;;19.60;46.90;;;;;;5054545;28;20497;-46
2020/12/10 19:26:43;;;;;;;7.03;5.47;;;19.60;47.00;;;;;;5054404;28;20037;-41
2020/12/10 19:29:09;;;;;;;7.03;5.82;;;19.60;47.00;;;;;;5054369;28;20036;-42
2020/12/10 19:31:34;;;;;;;6.95;5.60;;;19.60;47.00;;;;;;5053633;28;20447;-42
2020/12/10 19:34:00;;;;;;;7.72;5.30;;;19.60;46.90;;;;;;5054708;28;20025;-44
2020/12/10 19:36:25;;;;;;;9.43;6.60;;;19.70;46.90;;;;;;5054129;28;20045;-41
2020/12/10 19:38:51;;;;;;;7.13;5.63;;;19.70;46.90;;;;;;5054304;28;20045;-43
2020/12/10 19:41:17;;;;;;;7.40;5.78;;;19.70;46.80;;;;;;5054494;28;20056;-41
2020/12/10 19:43:42;;;;;;;9.88;5.45;;;19.70;47.50;;;;;;5054053;28;20033;-42
2020/12/10 19:46:08;;;;;;;7.55;6.03;;;19.80;46.80;;;;;;5054612;28;20037;-45
2020/12/10 19:48:33;;;;;;;7.65;5.40;;;19.80;46.80;;;;;;5054101;28;20029;-41
2020/12/10 19:51:00;;;;;;;8.07;6.32;;;19.80;46.80;;;;;;5054765;28;20034;-42
2020/12/10 19:53:26;;;;;;;8.10;5.50;;;19.80;46.70;;;;;;5054563;28;20400;-42
2020/12/10 19:55:51;;;;;;;10.13;6.03;;;19.90;46.70;;;;;;5054420;28;20075;-41
2020/12/10 19:58:17;;;;;;;13.60;9.82;;;19.90;46.60;;;;;;5054549;28;20121;-41
2020/12/10 20:00:42;;;;;;;10.18;7.13;;;19.90;45.10;;;;;;5053518;28;20060;-46
2020/12/10 20:03:09;;;;;;;10.07;7.63;;;19.80;45.30;;;;;;5053384;28;20037;-42
2020/12/10 20:05:37;;;;;;;8.73;6.18;;;19.90;45.80;;;;;;5054104;28;20411;-43
2020/12/10 20:08:03;;;;;;;7.20;5.38;;;19.80;46.00;;;;;;5054297;28;20083;-41
2020/12/10 20:10:29;;;;;;;7.07;5.68;;;19.90;46.20;;;;;;5054400;28;20467;-42
2020/12/10 20:12:55;;;;;;;6.40;4.95;;;19.90;46.30;;;;;;5053983;28;20033;-42
2020/12/10 20:15:21;;;;;;;6.32;5.43;;;19.80;46.30;;;;;;5053237;28;20067;-41
2020/12/10 20:17:47;;;;;;;6.30;4.82;;;19.90;46.30;;;;;;5054212;28;20539;-42
2020/12/10 20:20:12;;;;;;;6.57;5.72;;;19.80;46.30;;;;;;5055333;28;20040;-40
2020/12/10 20:22:39;;;;;;;7.95;5.40;;;19.80;46.30;;;;;;5057995;28;20439;-41